sensor_id;sensor_type;location;lat;lon;timestamp;pressure;altitude;pressure_sealevel;temperature;humidity
7075;BME280;3578;51.568;6.932;2023-02-04T00:00:14;52043.81;;;-144.14;97.27
7075;BME280;3578;51.568;6.932;2023-02-04T00:02:42;51973.72;;;-144.14;97.75
7075;BME280;3578;51.568;6.932;2023-02-04T00:05:10;51953.66;;;-144.14;97.72
7075;BME280;3578;51.568;6.932;2023-02-04T00:07:37;52005.75;;;-144.14;97.56
7075;BME280;3578;51.568;6.932;2023-02-04T00:10:06;52001.75;;;-144.14;97.57
7075;BME280;3578;51.568;6.932;2023-02-04T00:12:34;51983.72;;;-144.14;97.44
7075;BME280;3578;51.568;6.932;2023-02-04T00:15:01;51947.66;;;-144.14;97.43
7075;BME280;3578;51.568;6.932;2023-02-04T00:17:28;51985.72;;;-144.14;97.36
7075;BME280;3578;51.568;6.932;2023-02-04T00:19:55;51911.59;;;-144.14;97.78
7075;BME280;3578;51.568;6.932;2023-02-04T00:22:22;51923.63;;;-144.14;97.86
7075;BME280;3578;51.568;6.932;2023-02-04T00:24:51;51915.59;;;-144.14;97.97
7075;BME280;3578;51.568;6.932;2023-02-04T00:27:18;51869.53;;;-144.14;98.30
7075;BME280;3578;51.568;6.932;2023-02-04T00:29:46;51855.50;;;-144.14;98.50
7075;BME280;3578;51.568;6.932;2023-02-04T00:32:13;51813.44;;;-144.14;98.46
7075;BME280;3578;51.568;6.932;2023-02-04T00:34:40;51847.50;;;-144.14;98.21
7075;BME280;3578;51.568;6.932;2023-02-04T00:37:07;51837.47;;;-144.14;98.23
7075;BME280;3578;51.568;6.932;2023-02-04T00:39:35;51805.44;;;-144.14;98.47
7075;BME280;3578;51.568;6.932;2023-02-04T00:42:02;51781.38;;;-144.14;98.59
7075;BME280;3578;51.568;6.932;2023-02-04T00:44:30;51757.34;;;-144.14;98.80
7075;BME280;3578;51.568;6.932;2023-02-04T00:46:58;51769.38;;;-144.14;98.83
7075;BME280;3578;51.568;6.932;2023-02-04T00:49:25;51719.28;;;-144.14;99.20
7075;BME280;3578;51.568;6.932;2023-02-04T00:51:52;51695.25;;;-144.14;99.26
7075;BME280;3578;51.568;6.932;2023-02-04T00:54:19;51699.25;;;-144.14;99.34
7075;BME280;3578;51.568;6.932;2023-02-04T00:56:47;51641.16;;;-144.14;99.31
7075;BME280;3578;51.568;6.932;2023-02-04T00:59:13;51679.22;;;-144.14;99.19
7075;BME280;3578;51.568;6.932;2023-02-04T01:01:40;51705.28;;;-144.14;99.00
7075;BME280;3578;51.568;6.932;2023-02-04T01:04:10;51713.28;;;-144.14;98.86
7075;BME280;3578;51.568;6.932;2023-02-04T01:06:37;51705.28;;;-144.14;98.86
7075;BME280;3578;51.568;6.932;2023-02-04T01:09:04;51679.22;;;-144.14;99.00
7075;BME280;3578;51.568;6.932;2023-02-04T01:11:31;51711.28;;;-144.14;99.10
7075;BME280;3578;51.568;6.932;2023-02-04T01:13:58;51703.25;;;-144.14;98.87
7075;BME280;3578;51.568;6.932;2023-02-04T01:16:25;51695.25;;;-144.14;99.11
7075;BME280;3578;51.568;6.932;2023-02-04T01:18:52;51667.22;;;-144.14;99.15
7075;BME280;3578;51.568;6.932;2023-02-04T01:21:22;51683.22;;;-144.14;99.07
7075;BME280;3578;51.568;6.932;2023-02-04T01:23:49;51731.31;;;-144.14;98.54
7075;BME280;3578;51.568;6.932;2023-02-04T01:26:16;51805.44;;;-144.14;98.18
7075;BME280;3578;51.568;6.932;2023-02-04T01:28:43;51847.50;;;-144.14;97.97
7075;BME280;3578;51.568;6.932;2023-02-04T01:31:11;51781.38;;;-144.14;98.16
7075;BME280;3578;51.568;6.932;2023-02-04T01:33:38;51797.41;;;-144.14;98.16
7075;BME280;3578;51.568;6.932;2023-02-04T01:36:06;51815.44;;;-144.14;98.18
7075;BME280;3578;51.568;6.932;2023-02-04T01:38:34;51811.44;;;-144.14;98.55
7075;BME280;3578;51.568;6.932;2023-02-04T01:41:02;51759.34;;;-144.14;98.80
7075;BME280;3578;51.568;6.932;2023-02-04T01:43:30;51727.31;;;-144.14;98.98
7075;BME280;3578;51.568;6.932;2023-02-04T01:45:58;51711.28;;;-144.14;99.09
7075;BME280;3578;51.568;6.932;2023-02-04T01:48:27;51727.31;;;-144.14;99.06
7075;BME280;3578;51.568;6.932;2023-02-04T01:51:02;51737.31;;;-144.14;98.98
7075;BME280;3578;51.568;6.932;2023-02-04T01:53:31;51703.25;;;-144.14;99.03
7075;BME280;3578;51.568;6.932;2023-02-04T01:55:59;51775.38;;;-144.14;98.63
7075;BME280;3578;51.568;6.932;2023-02-04T01:58:28;51781.38;;;-144.14;98.36
7075;BME280;3578;51.568;6.932;2023-02-04T02:00:56;51779.38;;;-144.14;98.39
7075;BME280;3578;51.568;6.932;2023-02-04T02:03:23;51789.41;;;-144.14;98.37
7075;BME280;3578;51.568;6.932;2023-02-04T02:05:52;51827.47;;;-144.14;98.17
7075;BME280;3578;51.568;6.932;2023-02-04T02:08:20;51795.41;;;-144.14;98.41
7075;BME280;3578;51.568;6.932;2023-02-04T02:10:48;51799.41;;;-144.14;98.67
7075;BME280;3578;51.568;6.932;2023-02-04T02:13:18;51757.34;;;-144.14;98.85
7075;BME280;3578;51.568;6.932;2023-02-04T02:15:46;51751.34;;;-144.14;98.71
7075;BME280;3578;51.568;6.932;2023-02-04T02:18:13;51817.44;;;-144.14;98.50
7075;BME280;3578;51.568;6.932;2023-02-04T02:20:42;51835.47;;;-144.14;98.13
7075;BME280;3578;51.568;6.932;2023-02-04T02:23:18;51889.56;;;-144.14;97.65
7075;BME280;3578;51.568;6.932;2023-02-04T02:25:50;51857.50;;;-144.14;97.91
7075;BME280;3578;51.568;6.932;2023-02-04T02:28:20;51899.59;;;-144.14;97.90
7075;BME280;3578;51.568;6.932;2023-02-04T02:30:48;51891.56;;;-144.14;97.91
7075;BME280;3578;51.568;6.932;2023-02-04T02:33:18;51925.63;;;-144.14;98.05
7075;BME280;3578;51.568;6.932;2023-02-04T02:35:46;51899.59;;;-144.14;97.68
7075;BME280;3578;51.568;6.932;2023-02-04T02:38:15;51967.69;;;-144.14;97.62
7075;BME280;3578;51.568;6.932;2023-02-04T02:40:42;51955.69;;;-144.14;97.65
7075;BME280;3578;51.568;6.932;2023-02-04T02:43:15;51919.63;;;-144.14;97.80
7075;BME280;3578;51.568;6.932;2023-02-04T02:45:43;51945.66;;;-144.14;97.67
7075;BME280;3578;51.568;6.932;2023-02-04T02:48:11;51887.56;;;-144.14;97.83
7075;BME280;3578;51.568;6.932;2023-02-04T02:50:39;51923.63;;;-144.14;97.73
7075;BME280;3578;51.568;6.932;2023-02-04T02:53:11;51907.59;;;-144.14;97.60
7075;BME280;3578;51.568;6.932;2023-02-04T02:55:38;51935.63;;;-144.14;97.64
7075;BME280;3578;51.568;6.932;2023-02-04T02:58:14;51943.66;;;-144.14;97.78
7075;BME280;3578;51.568;6.932;2023-02-04T03:00:42;51927.63;;;-144.14;97.95
7075;BME280;3578;51.568;6.932;2023-02-04T03:03:12;51919.63;;;-144.14;97.97
7075;BME280;3578;51.568;6.932;2023-02-04T03:05:45;51817.44;;;-144.14;98.43
7075;BME280;3578;51.568;6.932;2023-02-04T03:08:14;51793.41;;;-144.14;98.69
7075;BME280;3578;51.568;6.932;2023-02-04T03:10:42;51807.44;;;-144.14;98.68
7075;BME280;3578;51.568;6.932;2023-02-04T03:13:10;51783.41;;;-144.14;98.73
7075;BME280;3578;51.568;6.932;2023-02-04T03:15:40;51743.34;;;-144.14;98.78
7075;BME280;3578;51.568;6.932;2023-02-04T03:18:09;51731.31;;;-144.14;98.83
7075;BME280;3578;51.568;6.932;2023-02-04T03:20:37;51735.31;;;-144.14;98.77
7075;BME280;3578;51.568;6.932;2023-02-04T03:23:05;51779.38;;;-144.14;98.62
7075;BME280;3578;51.568;6.932;2023-02-04T03:25:32;51819.44;;;-144.14;98.43
7075;BME280;3578;51.568;6.932;2023-02-04T03:27:59;51787.41;;;-144.14;98.48
7075;BME280;3578;51.568;6.932;2023-02-04T03:30:27;51757.34;;;-144.14;98.75
7075;BME280;3578;51.568;6.932;2023-02-04T03:32:55;51701.25;;;-144.14;99.18
7075;BME280;3578;51.568;6.932;2023-02-04T03:35:22;51635.16;;;-144.14;99.39
7075;BME280;3578;51.568;6.932;2023-02-04T03:37:49;51693.25;;;-144.14;99.17
7075;BME280;3578;51.568;6.932;2023-02-04T03:40:16;51727.31;;;-144.14;98.75
7075;BME280;3578;51.568;6.932;2023-02-04T03:42:43;51791.41;;;-144.14;98.56
7075;BME280;3578;51.568;6.932;2023-02-04T03:45:11;51707.28;;;-144.14;98.43
7075;BME280;3578;51.568;6.932;2023-02-04T03:47:38;51787.41;;;-144.14;98.42
7075;BME280;3578;51.568;6.932;2023-02-04T03:50:06;51805.44;;;-144.14;98.62
7075;BME280;3578;51.568;6.932;2023-02-04T03:52:35;51779.38;;;-144.14;98.63
7075;BME280;3578;51.568;6.932;2023-02-04T03:55:02;51743.34;;;-144.14;98.63
7075;BME280;3578;51.568;6.932;2023-02-04T03:57:29;51763.34;;;-144.14;98.58
7075;BME280;3578;51.568;6.932;2023-02-04T03:59:56;51767.38;;;-144.14;98.64
7075;BME280;3578;51.568;6.932;2023-02-04T04:02:23;51795.41;;;-144.14;98.52
7075;BME280;3578;51.568;6.932;2023-02-04T04:04:50;51841.50;;;-144.14;98.43
7075;BME280;3578;51.568;6.932;2023-02-04T04:07:18;51765.38;;;-144.14;98.77
7075;BME280;3578;51.568;6.932;2023-02-04T04:09:45;51783.41;;;-144.14;98.39
7075;BME280;3578;51.568;6.932;2023-02-04T04:12:12;51837.47;;;-144.14;98.31
7075;BME280;3578;51.568;6.932;2023-02-04T04:14:39;51849.50;;;-144.14;98.31
7075;BME280;3578;51.568;6.932;2023-02-04T04:17:06;51811.44;;;-144.14;98.61
7075;BME280;3578;51.568;6.932;2023-02-04T04:19:33;51777.38;;;-144.14;98.79
7075;BME280;3578;51.568;6.932;2023-02-04T04:22:00;51727.31;;;-144.14;98.90
7075;BME280;3578;51.568;6.932;2023-02-04T04:24:28;51711.28;;;-144.14;98.90
7075;BME280;3578;51.568;6.932;2023-02-04T04:26:55;51727.31;;;-144.14;98.99
7075;BME280;3578;51.568;6.932;2023-02-04T04:29:22;51719.28;;;-144.14;98.99
7075;BME280;3578;51.568;6.932;2023-02-04T04:31:49;51691.25;;;-144.14;98.93
7075;BME280;3578;51.568;6.932;2023-02-04T04:34:16;51723.28;;;-144.14;98.82
7075;BME280;3578;51.568;6.932;2023-02-04T04:36:43;51743.34;;;-144.14;98.83
7075;BME280;3578;51.568;6.932;2023-02-04T04:39:10;51731.31;;;-144.14;98.92
7075;BME280;3578;51.568;6.932;2023-02-04T04:41:39;51759.34;;;-144.14;98.74
7075;BME280;3578;51.568;6.932;2023-02-04T04:44:06;51775.38;;;-144.14;98.52
7075;BME280;3578;51.568;6.932;2023-02-04T04:46:33;51805.44;;;-144.14;98.53
7075;BME280;3578;51.568;6.932;2023-02-04T04:49:00;51753.34;;;-144.14;98.63
7075;BME280;3578;51.568;6.932;2023-02-04T04:51:27;51747.34;;;-144.14;98.65
7075;BME280;3578;51.568;6.932;2023-02-04T04:53:56;51795.41;;;-144.14;98.78
7075;BME280;3578;51.568;6.932;2023-02-04T04:56:23;51735.31;;;-144.14;98.80
7075;BME280;3578;51.568;6.932;2023-02-04T04:58:51;51723.28;;;-144.14;98.86
7075;BME280;3578;51.568;6.932;2023-02-04T05:01:18;51691.25;;;-144.14;98.93
7075;BME280;3578;51.568;6.932;2023-02-04T05:03:47;51713.28;;;-144.14;99.09
7075;BME280;3578;51.568;6.932;2023-02-04T05:06:14;51683.22;;;-144.14;99.23
7075;BME280;3578;51.568;6.932;2023-02-04T05:08:41;51657.19;;;-144.14;99.33
7075;BME280;3578;51.568;6.932;2023-02-04T05:11:08;51631.16;;;-144.14;99.52
7075;BME280;3578;51.568;6.932;2023-02-04T05:13:35;51591.09;;;-144.14;99.58
7075;BME280;3578;51.568;6.932;2023-02-04T05:16:04;51579.06;;;-144.14;99.66
7075;BME280;3578;51.568;6.932;2023-02-04T05:18:31;51541.00;;;-144.14;99.75
7075;BME280;3578;51.568;6.932;2023-02-04T05:20:58;51555.03;;;-144.14;99.81
7075;BME280;3578;51.568;6.932;2023-02-04T05:23:25;51529.00;;;-144.14;99.83
7075;BME280;3578;51.568;6.932;2023-02-04T05:25:51;51446.88;;;-144.14;100.00
7075;BME280;3578;51.568;6.932;2023-02-04T05:28:18;51402.81;;;-144.14;100.00
7075;BME280;3578;51.568;6.932;2023-02-04T05:30:45;51330.69;;;-144.14;100.00
7075;BME280;3578;51.568;6.932;2023-02-04T05:33:14;51306.66;;;-144.14;100.00
7075;BME280;3578;51.568;6.932;2023-02-04T05:35:41;51282.63;;;-144.14;100.00
7075;BME280;3578;51.568;6.932;2023-02-04T05:38:08;51258.59;;;-144.14;100.00
7075;BME280;3578;51.568;6.932;2023-02-04T05:40:35;51224.53;;;-144.14;100.00
7075;BME280;3578;51.568;6.932;2023-02-04T05:43:02;51244.56;;;-144.14;100.00
7075;BME280;3578;51.568;6.932;2023-02-04T05:45:30;51218.53;;;-144.14;100.00
7075;BME280;3578;51.568;6.932;2023-02-04T05:47:57;51202.50;;;-144.14;100.00
7075;BME280;3578;51.568;6.932;2023-02-04T05:50:25;51182.47;;;-144.14;100.00
7075;BME280;3578;51.568;6.932;2023-02-04T05:52:52;51156.44;;;-144.14;100.00
7075;BME280;3578;51.568;6.932;2023-02-04T05:55:19;51144.44;;;-144.14;100.00
7075;BME280;3578;51.568;6.932;2023-02-04T05:57:46;51130.41;;;-144.14;100.00
7075;BME280;3578;51.568;6.932;2023-02-04T06:00:13;51174.47;;;-144.14;100.00
7075;BME280;3578;51.568;6.932;2023-02-04T06:02:40;51170.47;;;-144.14;100.00
7075;BME280;3578;51.568;6.932;2023-02-04T06:05:07;51166.47;;;-144.14;100.00
7075;BME280;3578;51.568;6.932;2023-02-04T06:07:36;51188.50;;;-144.14;100.00
7075;BME280;3578;51.568;6.932;2023-02-04T06:10:03;51192.50;;;-144.14;100.00
7075;BME280;3578;51.568;6.932;2023-02-04T06:12:31;51200.50;;;-144.14;100.00
7075;BME280;3578;51.568;6.932;2023-02-04T06:14:58;51226.53;;;-144.14;100.00
7075;BME280;3578;51.568;6.932;2023-02-04T06:17:25;51226.53;;;-144.14;100.00
7075;BME280;3578;51.568;6.932;2023-02-04T06:19:52;51272.59;;;-144.14;100.00
7075;BME280;3578;51.568;6.932;2023-02-04T06:22:19;51312.66;;;-144.14;100.00
7075;BME280;3578;51.568;6.932;2023-02-04T06:24:47;51282.63;;;-144.14;100.00
7075;BME280;3578;51.568;6.932;2023-02-04T06:27:14;51344.72;;;-144.14;100.00
7075;BME280;3578;51.568;6.932;2023-02-04T06:29:47;51358.72;;;-144.14;100.00
7075;BME280;3578;51.568;6.932;2023-02-04T06:32:14;51342.72;;;-144.14;100.00
7075;BME280;3578;51.568;6.932;2023-02-04T06:34:42;51362.75;;;-144.14;100.00
7075;BME280;3578;51.568;6.932;2023-02-04T06:37:09;51386.78;;;-144.14;100.00
7075;BME280;3578;51.568;6.932;2023-02-04T06:39:37;51386.78;;;-144.14;100.00
7075;BME280;3578;51.568;6.932;2023-02-04T06:42:06;51364.75;;;-144.14;100.00
7075;BME280;3578;51.568;6.932;2023-02-04T06:44:33;51346.72;;;-144.14;100.00
7075;BME280;3578;51.568;6.932;2023-02-04T06:47:00;51326.69;;;-144.14;100.00
7075;BME280;3578;51.568;6.932;2023-02-04T06:49:27;51278.63;;;-144.14;100.00
7075;BME280;3578;51.568;6.932;2023-02-04T06:51:54;51292.63;;;-144.14;100.00
7075;BME280;3578;51.568;6.932;2023-02-04T06:54:21;51254.59;;;-144.14;100.00
7075;BME280;3578;51.568;6.932;2023-02-04T06:56:48;51236.56;;;-144.14;100.00
7075;BME280;3578;51.568;6.932;2023-02-04T06:59:16;51262.59;;;-144.14;100.00
7075;BME280;3578;51.568;6.932;2023-02-04T07:01:43;51218.53;;;-144.14;100.00
7075;BME280;3578;51.568;6.932;2023-02-04T07:04:10;51228.53;;;-144.14;100.00
7075;BME280;3578;51.568;6.932;2023-02-04T07:06:37;51202.50;;;-144.14;100.00
7075;BME280;3578;51.568;6.932;2023-02-04T07:09:04;51156.44;;;-144.14;100.00
7075;BME280;3578;51.568;6.932;2023-02-04T07:11:31;51198.50;;;-144.14;100.00
7075;BME280;3578;51.568;6.932;2023-02-04T07:13:58;51172.47;;;-144.14;100.00
7075;BME280;3578;51.568;6.932;2023-02-04T07:16:26;51178.47;;;-144.14;100.00
7075;BME280;3578;51.568;6.932;2023-02-04T07:18:53;51166.47;;;-144.14;100.00
7075;BME280;3578;51.568;6.932;2023-02-04T07:21:20;51186.47;;;-144.14;100.00
7075;BME280;3578;51.568;6.932;2023-02-04T07:23:47;51134.41;;;-144.14;100.00
7075;BME280;3578;51.568;6.932;2023-02-04T07:26:14;51130.41;;;-144.14;100.00
7075;BME280;3578;51.568;6.932;2023-02-04T07:28:41;51170.47;;;-144.14;100.00
7075;BME280;3578;51.568;6.932;2023-02-04T07:31:08;51090.34;;;-144.14;100.00
7075;BME280;3578;51.568;6.932;2023-02-04T07:33:37;51208.50;;;-144.14;100.00
7075;BME280;3578;51.568;6.932;2023-02-04T07:36:05;51194.50;;;-144.14;100.00
7075;BME280;3578;51.568;6.932;2023-02-04T07:38:34;51260.59;;;-144.14;100.00
7075;BME280;3578;51.568;6.932;2023-02-04T07:41:04;51228.53;;;-144.14;100.00
7075;BME280;3578;51.568;6.932;2023-02-04T07:43:33;51228.53;;;-144.14;100.00
7075;BME280;3578;51.568;6.932;2023-02-04T07:46:00;51234.56;;;-144.14;100.00
7075;BME280;3578;51.568;6.932;2023-02-04T07:48:28;51206.50;;;-144.14;100.00
7075;BME280;3578;51.568;6.932;2023-02-04T07:50:56;51226.53;;;-144.14;100.00
7075;BME280;3578;51.568;6.932;2023-02-04T07:53:23;51252.56;;;-144.14;100.00
7075;BME280;3578;51.568;6.932;2023-02-04T07:55:50;51250.56;;;-144.14;100.00
7075;BME280;3578;51.568;6.932;2023-02-04T07:58:17;51304.66;;;-144.14;100.00
7075;BME280;3578;51.568;6.932;2023-02-04T08:00:46;51390.78;;;-144.14;100.00
7075;BME280;3578;51.568;6.932;2023-02-04T08:03:13;51436.84;;;-144.14;100.00
7075;BME280;3578;51.568;6.932;2023-02-04T08:05:40;51454.88;;;-144.14;100.00
7075;BME280;3578;51.568;6.932;2023-02-04T08:08:09;51472.91;;;-144.14;100.00
7075;BME280;3578;51.568;6.932;2023-02-04T08:10:36;51553.03;;;-144.14;99.91
7075;BME280;3578;51.568;6.932;2023-02-04T08:13:03;51543.00;;;-144.14;99.79
7075;BME280;3578;51.568;6.932;2023-02-04T08:15:30;51601.09;;;-144.14;99.31
7075;BME280;3578;51.568;6.932;2023-02-04T08:17:57;51667.22;;;-144.14;99.13
7075;BME280;3578;51.568;6.932;2023-02-04T08:20:24;51731.31;;;-144.14;98.89
7075;BME280;3578;51.568;6.932;2023-02-04T08:22:51;51787.41;;;-144.14;98.58
7075;BME280;3578;51.568;6.932;2023-02-04T08:25:19;51835.47;;;-144.14;98.12
7075;BME280;3578;51.568;6.932;2023-02-04T08:27:46;51873.53;;;-144.14;97.86
7075;BME280;3578;51.568;6.932;2023-02-04T08:30:14;51943.66;;;-144.14;97.54
7075;BME280;3578;51.568;6.932;2023-02-04T08:32:41;51961.69;;;-144.14;97.25
7075;BME280;3578;51.568;6.932;2023-02-04T08:35:08;52055.84;;;-144.14;97.05
7075;BME280;3578;51.568;6.932;2023-02-04T08:37:35;52137.97;;;-144.14;96.46
7075;BME280;3578;51.568;6.932;2023-02-04T08:40:04;52178.06;;;-144.14;96.04
7075;BME280;3578;51.568;6.932;2023-02-04T08:42:32;52254.19;;;-144.14;95.40
7075;BME280;3578;51.568;6.932;2023-02-04T08:45:00;52288.25;;;-144.14;95.24
7075;BME280;3578;51.568;6.932;2023-02-04T08:47:28;52282.22;;;-144.14;95.08
7075;BME280;3578;51.568;6.932;2023-02-04T08:49:55;52364.38;;;-144.14;94.79
7075;BME280;3578;51.568;6.932;2023-02-04T08:52:22;52364.38;;;-144.14;94.70
7075;BME280;3578;51.568;6.932;2023-02-04T08:54:49;52354.34;;;-144.14;95.08
7075;BME280;3578;51.568;6.932;2023-02-04T08:57:16;52346.34;;;-144.14;95.00
7075;BME280;3578;51.568;6.932;2023-02-04T08:59:45;52384.41;;;-144.14;94.65
7075;BME280;3578;51.568;6.932;2023-02-04T09:02:12;52368.38;;;-144.14;94.81
7075;BME280;3578;51.568;6.932;2023-02-04T09:04:39;52380.41;;;-144.14;94.72
7075;BME280;3578;51.568;6.932;2023-02-04T09:07:05;52354.34;;;-144.14;94.91
7075;BME280;3578;51.568;6.932;2023-02-04T09:09:32;52368.38;;;-144.14;95.31
7075;BME280;3578;51.568;6.932;2023-02-04T09:11:59;52334.31;;;-144.14;95.44
7075;BME280;3578;51.568;6.932;2023-02-04T09:14:27;52324.31;;;-144.14;95.34
7075;BME280;3578;51.568;6.932;2023-02-04T09:16:56;52338.34;;;-144.14;95.34
7075;BME280;3578;51.568;6.932;2023-02-04T09:19:23;52366.38;;;-144.14;95.24
7075;BME280;3578;51.568;6.932;2023-02-04T09:21:51;52372.38;;;-144.14;94.83
7075;BME280;3578;51.568;6.932;2023-02-04T09:24:18;52384.41;;;-144.14;94.87
7075;BME280;3578;51.568;6.932;2023-02-04T09:26:48;52368.38;;;-144.14;95.08
7075;BME280;3578;51.568;6.932;2023-02-04T09:29:15;52368.38;;;-144.14;95.07
7075;BME280;3578;51.568;6.932;2023-02-04T09:31:42;52390.44;;;-144.14;95.08
7075;BME280;3578;51.568;6.932;2023-02-04T09:34:10;52392.44;;;-144.14;94.57
7075;BME280;3578;51.568;6.932;2023-02-04T09:36:37;52438.50;;;-144.14;94.28
7075;BME280;3578;51.568;6.932;2023-02-04T09:39:04;52390.44;;;-144.14;94.57
7075;BME280;3578;51.568;6.932;2023-02-04T09:41:32;52392.44;;;-144.14;95.15
7075;BME280;3578;51.568;6.932;2023-02-04T09:44:00;52396.44;;;-144.14;95.18
7075;BME280;3578;51.568;6.932;2023-02-04T09:46:27;52418.47;;;-144.14;94.90
7075;BME280;3578;51.568;6.932;2023-02-04T09:48:55;52508.63;;;-144.14;93.48
7075;BME280;3578;51.568;6.932;2023-02-04T09:51:27;52526.66;;;-144.14;93.64
7075;BME280;3578;51.568;6.932;2023-02-04T09:54:04;52556.72;;;-144.14;92.76
7075;BME280;3578;51.568;6.932;2023-02-04T09:56:32;52564.75;;;-144.14;92.94
7075;BME280;3578;51.568;6.932;2023-02-04T09:58:59;52578.75;;;-144.14;92.76
7075;BME280;3578;51.568;6.932;2023-02-04T10:01:27;52590.78;;;-144.14;92.65
7075;BME280;3578;51.568;6.932;2023-02-04T10:03:57;52590.78;;;-144.14;92.71
7075;BME280;3578;51.568;6.932;2023-02-04T10:06:27;52654.91;;;-144.14;92.46
7075;BME280;3578;51.568;6.932;2023-02-04T10:08:55;52624.84;;;-144.14;92.35
7075;BME280;3578;51.568;6.932;2023-02-04T10:11:24;52644.88;;;-144.14;92.27
7075;BME280;3578;51.568;6.932;2023-02-04T10:13:54;52584.78;;;-144.14;91.98
7075;BME280;3578;51.568;6.932;2023-02-04T10:16:25;52642.88;;;-144.14;92.41
7075;BME280;3578;51.568;6.932;2023-02-04T10:18:56;52646.91;;;-144.14;91.92
7075;BME280;3578;51.568;6.932;2023-02-04T10:21:29;52688.97;;;-144.14;91.81
7075;BME280;3578;51.568;6.932;2023-02-04T10:23:58;52749.09;;;-144.14;90.96
7075;BME280;3578;51.568;6.932;2023-02-04T10:26:28;52723.03;;;-144.14;90.20
7075;BME280;3578;51.568;6.932;2023-02-04T10:28:59;52805.19;;;-144.14;90.06
7075;BME280;3578;51.568;6.932;2023-02-04T10:31:31;52773.13;;;-144.14;90.41
7075;BME280;3578;51.568;6.932;2023-02-04T10:34:09;52775.13;;;-144.14;90.38
7075;BME280;3578;51.568;6.932;2023-02-04T10:36:39;52729.03;;;-144.14;90.88
7075;BME280;3578;51.568;6.932;2023-02-04T10:39:12;52743.06;;;-144.14;91.11
7075;BME280;3578;51.568;6.932;2023-02-04T10:41:46;52745.06;;;-144.14;91.20
7075;BME280;3578;51.568;6.932;2023-02-04T10:44:16;52745.06;;;-144.14;90.65
7075;BME280;3578;51.568;6.932;2023-02-04T10:46:43;52765.13;;;-144.14;90.67
7075;BME280;3578;51.568;6.932;2023-02-04T10:49:18;52805.19;;;-144.14;90.54
7075;BME280;3578;51.568;6.932;2023-02-04T10:51:49;52803.19;;;-144.14;89.63
7075;BME280;3578;51.568;6.932;2023-02-04T10:54:19;52865.31;;;-144.14;89.14
7075;BME280;3578;51.568;6.932;2023-02-04T10:56:57;52879.34;;;-144.14;88.47
7075;BME280;3578;51.568;6.932;2023-02-04T10:59:26;52933.44;;;-144.14;88.42
7075;BME280;3578;51.568;6.932;2023-02-04T11:01:55;52919.41;;;-144.14;88.96
7075;BME280;3578;51.568;6.932;2023-02-04T11:04:23;52899.38;;;-144.14;88.65
7075;BME280;3578;51.568;6.932;2023-02-04T11:06:52;52885.34;;;-144.14;89.05
7075;BME280;3578;51.568;6.932;2023-02-04T11:09:19;52937.44;;;-144.14;88.34
7075;BME280;3578;51.568;6.932;2023-02-04T11:11:47;52937.44;;;-144.14;87.60
7075;BME280;3578;51.568;6.932;2023-02-04T11:14:26;52901.38;;;-144.14;89.13
7075;BME280;3578;51.568;6.932;2023-02-04T11:16:55;52835.25;;;-144.14;89.57
7075;BME280;3578;51.568;6.932;2023-02-04T11:19:35;52889.34;;;-144.14;89.22
7075;BME280;3578;51.568;6.932;2023-02-04T11:22:20;52905.38;;;-144.14;89.03
7075;BME280;3578;51.568;6.932;2023-02-04T11:24:48;52857.28;;;-144.14;89.30
7075;BME280;3578;51.568;6.932;2023-02-04T11:27:23;52893.38;;;-144.14;89.06
7075;BME280;3578;51.568;6.932;2023-02-04T11:29:50;52989.56;;;-144.14;88.42
7075;BME280;3578;51.568;6.932;2023-02-04T11:32:30;53035.63;;;-144.14;86.83
7075;BME280;3578;51.568;6.932;2023-02-04T11:35:23;53069.72;;;-144.14;86.36
7075;BME280;3578;51.568;6.932;2023-02-04T11:37:51;53105.78;;;-144.14;85.82
7075;BME280;3578;51.568;6.932;2023-02-04T11:40:28;53097.75;;;-144.14;85.78
7075;BME280;3578;51.568;6.932;2023-02-04T11:43:07;53077.72;;;-144.14;86.38
7075;BME280;3578;51.568;6.932;2023-02-04T11:45:36;53029.63;;;-144.14;87.15
7075;BME280;3578;51.568;6.932;2023-02-04T11:48:16;53085.75;;;-144.14;85.96
7075;BME280;3578;51.568;6.932;2023-02-04T11:50:54;53097.75;;;-144.14;86.40
7075;BME280;3578;51.568;6.932;2023-02-04T11:53:28;53085.75;;;-144.14;85.65
7075;BME280;3578;51.568;6.932;2023-02-04T11:55:55;53167.91;;;-144.14;84.92
7075;BME280;3578;51.568;6.932;2023-02-04T11:58:22;53149.88;;;-144.14;84.67
7075;BME280;3578;51.568;6.932;2023-02-04T12:00:52;53133.84;;;-144.14;84.95
7075;BME280;3578;51.568;6.932;2023-02-04T12:03:25;53099.78;;;-144.14;85.70
7075;BME280;3578;51.568;6.932;2023-02-04T12:05:54;53083.72;;;-144.14;85.31
7075;BME280;3578;51.568;6.932;2023-02-04T12:08:31;53069.72;;;-144.14;85.85
7075;BME280;3578;51.568;6.932;2023-02-04T12:11:06;53093.75;;;-144.14;86.22
7075;BME280;3578;51.568;6.932;2023-02-04T12:13:46;53037.66;;;-144.14;86.99
7075;BME280;3578;51.568;6.932;2023-02-04T12:16:14;53069.72;;;-144.14;87.10
7075;BME280;3578;51.568;6.932;2023-02-04T12:18:41;53141.84;;;-144.14;84.38
7075;BME280;3578;51.568;6.932;2023-02-04T12:21:08;53197.97;;;-144.14;82.39
7075;BME280;3578;51.568;6.932;2023-02-04T12:23:36;53195.97;;;-144.14;82.95
7075;BME280;3578;51.568;6.932;2023-02-04T12:26:03;53230.03;;;-144.14;82.80
7075;BME280;3578;51.568;6.932;2023-02-04T12:28:30;53183.94;;;-144.14;83.13
7075;BME280;3578;51.568;6.932;2023-02-04T12:30:57;53177.94;;;-144.14;83.66
7075;BME280;3578;51.568;6.932;2023-02-04T12:33:24;53181.94;;;-144.14;83.22
7075;BME280;3578;51.568;6.932;2023-02-04T12:35:51;53191.94;;;-144.14;83.29
7075;BME280;3578;51.568;6.932;2023-02-04T12:38:19;53203.97;;;-144.14;83.61
7075;BME280;3578;51.568;6.932;2023-02-04T12:40:47;53189.94;;;-144.14;84.07
7075;BME280;3578;51.568;6.932;2023-02-04T12:43:14;53171.91;;;-144.14;84.34
7075;BME280;3578;51.568;6.932;2023-02-04T12:45:41;53169.91;;;-144.14;83.80
7075;BME280;3578;51.568;6.932;2023-02-04T12:48:11;53212.00;;;-144.14;83.55
7075;BME280;3578;51.568;6.932;2023-02-04T12:50:38;53250.06;;;-144.14;82.66
7075;BME280;3578;51.568;6.932;2023-02-04T12:53:05;53296.16;;;-144.14;82.29
7075;BME280;3578;51.568;6.932;2023-02-04T12:55:32;53334.25;;;-144.14;81.59
7075;BME280;3578;51.568;6.932;2023-02-04T12:58:00;53336.25;;;-144.14;80.76
7075;BME280;3578;51.568;6.932;2023-02-04T13:00:27;53334.25;;;-144.14;79.86
7075;BME280;3578;51.568;6.932;2023-02-04T13:02:54;53332.25;;;-144.14;80.92